createdAt,value
2022-08-17T00:00:51.000Z,79.64
2022-08-17T00:01:51.000Z,79.44
2022-08-17T00:02:51.000Z,79.44
2022-08-17T00:03:51.000Z,80.55
2022-08-17T00:04:51.000Z,80.95
2022-08-17T00:05:51.000Z,80.65
2022-08-17T00:06:51.000Z,80.75
2022-08-17T00:07:51.000Z,81.35
2022-08-17T00:08:51.000Z,81.65
2022-08-17T00:09:51.000Z,81.35
2022-08-17T00:10:51.000Z,81.35
2022-08-17T00:11:51.000Z,80.75
2022-08-17T00:12:51.000Z,80.55
2022-08-17T00:13:51.000Z,80.25
2022-08-17T00:13:51.000Z,80.25
2022-08-17T00:14:51.000Z,80.65
2022-08-17T00:14:51.000Z,80.65
2022-08-17T00:15:51.000Z,80.35
2022-08-17T00:15:51.000Z,80.35
2022-08-17T00:16:51.000Z,80.05
2022-08-17T00:16:51.000Z,80.05
2022-08-17T00:17:51.000Z,80.25
2022-08-17T00:17:51.000Z,80.25
2022-08-17T00:18:51.000Z,80.35
2022-08-17T00:19:51.000Z,80.55
2022-08-17T00:20:51.000Z,81.26
2022-08-17T00:21:51.000Z,82.26
2022-08-17T00:22:51.000Z,81.85
2022-08-17T00:23:51.000Z,81.79
2022-08-17T00:24:51.000Z,81.76
2022-08-17T00:25:51.000Z,82.36
2022-08-17T00:26:51.000Z,82.50
2022-08-17T00:27:51.000Z,81.96
2022-08-17T00:28:51.000Z,82.10
2022-08-17T00:29:51.000Z,82.10
2022-08-17T00:30:51.000Z,82.70
2022-08-17T00:31:51.000Z,83.11
2022-08-17T00:32:51.000Z,82.70
2022-08-17T00:33:51.000Z,82.50
2022-08-17T00:34:51.000Z,82.90
2022-08-17T00:35:51.000Z,82.40
2022-08-17T00:36:51.000Z,82.20
2022-08-17T00:37:51.000Z,83.11
2022-08-17T00:38:51.000Z,84.41
2022-08-17T00:39:51.000Z,84.01
2022-08-17T00:40:51.000Z,84.01
2022-08-17T00:41:51.000Z,83.40
2022-08-17T00:42:51.000Z,83.20
2022-08-17T00:43:51.000Z,83.51
2022-08-17T00:44:51.000Z,83.51
2022-08-17T00:45:51.000Z,83.51
2022-08-17T00:46:51.000Z,84.01
2022-08-17T00:47:51.000Z,83.81
2022-08-17T00:48:51.000Z,83.71
2022-08-17T00:49:51.000Z,83.11
2022-08-17T00:50:51.000Z,83.34
2022-08-17T00:51:51.000Z,83.25
2022-08-17T00:52:51.000Z,83.14
2022-08-17T00:53:51.000Z,83.25
2022-08-17T00:54:50.000Z,83.04
2022-08-17T00:55:50.000Z,83.04
2022-08-17T00:56:50.000Z,83.34
2022-08-17T00:57:50.000Z,83.75
2022-08-17T00:58:50.000Z,84.75
2022-08-17T00:59:50.000Z,85.05
2022-08-17T01:00:50.000Z,85.25
2022-08-17T01:01:50.000Z,85.36
2022-08-17T01:02:50.000Z,85.31
2022-08-17T01:03:50.000Z,85.05
2022-08-17T01:04:50.000Z,84.65
2022-08-17T01:05:50.000Z,84.75
2022-08-17T01:06:50.000Z,85.16
2022-08-17T01:07:50.000Z,85.02
2022-08-17T01:08:50.000Z,84.71
2022-08-17T01:09:50.000Z,84.61
2022-08-17T01:10:50.000Z,84.41
2022-08-17T01:11:50.000Z,84.21
2022-08-17T01:12:50.000Z,84.11
2022-08-17T01:13:50.000Z,84.91
2022-08-17T01:14:50.000Z,84.91
2022-08-17T01:15:50.000Z,84.41
2022-08-17T01:16:50.000Z,84.31
2022-08-17T01:17:50.000Z,84.11
2022-08-17T01:18:50.000Z,83.91
2022-08-17T01:19:50.000Z,83.71
2022-08-17T01:20:50.000Z,83.81
2022-08-17T01:21:50.000Z,84.11
2022-08-17T01:22:50.000Z,83.81
2022-08-17T01:23:50.000Z,83.61
2022-08-17T01:24:50.000Z,83.61
2022-08-17T01:25:50.000Z,83.61
2022-08-17T01:26:50.000Z,83.75
2022-08-17T01:27:50.000Z,84.15
2022-08-17T01:28:50.000Z,84.55
2022-08-17T01:29:50.000Z,84.75
2022-08-17T01:30:50.000Z,84.85
2022-08-17T01:31:50.000Z,85.05
2022-08-17T01:32:50.000Z,85.36
2022-08-17T01:33:50.000Z,85.16
2022-08-17T01:34:50.000Z,85.36
2022-08-17T01:35:50.000Z,85.66
2022-08-17T01:36:50.000Z,85.76
2022-08-17T01:37:50.000Z,86.06
2022-08-17T01:38:50.000Z,85.76
2022-08-17T01:39:50.000Z,85.76
2022-08-17T01:40:50.000Z,85.76
2022-08-17T01:41:50.000Z,86.06
2022-08-17T01:42:50.000Z,86.26
2022-08-17T01:43:50.000Z,86.26
2022-08-17T01:44:50.000Z,85.96
2022-08-17T01:45:50.000Z,86.57
2022-08-17T01:46:50.000Z,86.06
2022-08-17T01:47:50.000Z,85.56
2022-08-17T01:48:50.000Z,85.25
2022-08-17T01:49:50.000Z,85.10
2022-08-17T01:50:50.000Z,85.20
2022-08-17T01:51:50.000Z,85.60
2022-08-17T01:52:50.000Z,85.86
2022-08-17T01:53:50.000Z,86.00
2022-08-17T01:54:50.000Z,85.86
2022-08-17T01:55:50.000Z,85.86
2022-08-17T01:56:50.000Z,85.76
2022-08-17T01:57:50.000Z,85.66
2022-08-17T01:58:50.000Z,85.56
2022-08-17T01:59:50.000Z,85.96
2022-08-17T02:00:50.000Z,85.76
2022-08-17T02:01:50.000Z,85.96
2022-08-17T02:02:50.000Z,85.46
2022-08-17T02:03:50.000Z,85.05
2022-08-17T02:03:50.000Z,85.05
2022-08-17T02:04:50.000Z,85.16
2022-08-17T02:04:50.000Z,85.16
2022-08-17T02:05:50.000Z,85.36
2022-08-17T02:05:50.000Z,85.36
2022-08-17T02:06:50.000Z,85.25
2022-08-17T02:06:50.000Z,85.25
2022-08-17T02:07:49.000Z,84.95
2022-08-17T02:07:49.000Z,84.95
2022-08-17T02:08:49.000Z,85.05
2022-08-17T02:09:49.000Z,85.16
2022-08-17T02:10:49.000Z,85.16
2022-08-17T02:11:49.000Z,85.66
2022-08-17T02:12:49.000Z,85.76
2022-08-17T02:13:49.000Z,85.86
2022-08-17T02:14:49.000Z,85.96
2022-08-17T02:15:49.000Z,85.86
2022-08-17T02:16:49.000Z,85.46
2022-08-17T02:17:49.000Z,85.20
2022-08-17T02:18:49.000Z,85.70
2022-08-17T02:19:49.000Z,85.70
2022-08-17T02:20:49.000Z,86.00
2022-08-17T02:21:49.000Z,85.70
2022-08-17T02:22:49.000Z,85.10
2022-08-17T02:23:49.000Z,85.30
2022-08-17T02:24:49.000Z,85.10
2022-08-17T02:25:49.000Z,84.80
2022-08-17T02:26:49.000Z,84.89
2022-08-17T02:27:49.000Z,85.30
2022-08-17T02:28:49.000Z,85.20
2022-08-17T02:28:49.000Z,85.20
2022-08-17T02:29:49.000Z,85.40
2022-08-17T02:29:49.000Z,85.40
2022-08-17T02:30:49.000Z,85.84
2022-08-17T02:30:49.000Z,85.84
2022-08-17T02:31:49.000Z,86.95
2022-08-17T02:31:49.000Z,86.95
2022-08-17T02:32:49.000Z,86.81
2022-08-17T02:32:49.000Z,86.81
2022-08-17T02:33:49.000Z,87.01
2022-08-17T02:34:49.000Z,87.11
2022-08-17T02:35:49.000Z,86.75
2022-08-17T02:36:49.000Z,86.10
2022-08-17T02:37:49.000Z,86.15
2022-08-17T02:38:49.000Z,85.94
2022-08-17T02:39:49.000Z,85.84
2022-08-17T02:40:49.000Z,85.84
2022-08-17T02:41:49.000Z,86.75
2022-08-17T02:42:49.000Z,87.55
2022-08-17T02:43:49.000Z,87.76
2022-08-17T02:44:49.000Z,88.26
2022-08-17T02:45:49.000Z,88.12
2022-08-17T02:46:49.000Z,87.96
2022-08-17T02:47:49.000Z,88.76
2022-08-17T02:48:49.000Z,89.03
2022-08-17T02:48:49.000Z,89.03
2022-08-17T02:49:49.000Z,89.03
2022-08-17T02:49:49.000Z,89.03
2022-08-17T02:50:49.000Z,89.03
2022-08-17T02:50:49.000Z,89.03
2022-08-17T02:51:49.000Z,89.23
2022-08-17T02:51:49.000Z,89.23
2022-08-17T02:52:49.000Z,89.12
2022-08-17T02:52:49.000Z,89.12
2022-08-17T02:53:49.000Z,89.23
2022-08-17T02:54:49.000Z,89.12
2022-08-17T02:55:49.000Z,89.12
2022-08-17T02:56:49.000Z,89.03
2022-08-17T02:57:49.000Z,89.03
2022-08-17T02:58:49.000Z,88.62
2022-08-17T02:59:49.000Z,88.32
2022-08-17T03:00:49.000Z,88.18
2022-08-17T03:01:49.000Z,87.77
2022-08-17T03:02:49.000Z,87.51
2022-08-17T03:03:49.000Z,87.11
2022-08-17T03:04:49.000Z,86.81
2022-08-17T03:05:49.000Z,86.71
2022-08-17T03:06:49.000Z,87.41
2022-08-17T03:07:49.000Z,87.71
2022-08-17T03:08:49.000Z,87.41
2022-08-17T03:09:49.000Z,87.01
2022-08-17T03:10:49.000Z,87.71
2022-08-17T03:11:49.000Z,88.32
2022-08-17T03:12:49.000Z,88.22
2022-08-17T03:13:49.000Z,88.62
2022-08-17T03:14:49.000Z,88.92
2022-08-17T03:15:49.000Z,88.92
2022-08-17T03:16:49.000Z,89.12
2022-08-17T03:17:49.000Z,89.03
2022-08-17T03:18:49.000Z,89.03
2022-08-17T03:19:48.000Z,88.52
2022-08-17T03:20:48.000Z,88.02
2022-08-17T03:21:48.000Z,87.92
2022-08-17T03:22:48.000Z,87.71
2022-08-17T03:23:48.000Z,88.42
2022-08-17T03:24:48.000Z,88.92
2022-08-17T03:25:48.000Z,88.88
2022-08-17T03:26:48.000Z,89.12
2022-08-17T03:27:48.000Z,89.08
2022-08-17T03:28:48.000Z,88.78
2022-08-17T03:29:48.000Z,88.88
2022-08-17T03:30:48.000Z,88.58
2022-08-17T03:31:48.000Z,88.38
2022-08-17T03:32:48.000Z,88.07
2022-08-17T03:33:48.000Z,87.87
2022-08-17T03:34:48.000Z,87.98
2022-08-17T03:35:48.000Z,88.07
2022-08-17T03:36:48.000Z,87.77
2022-08-17T03:37:48.000Z,87.67
2022-08-17T03:38:48.000Z,87.47
2022-08-17T03:39:48.000Z,87.98
2022-08-17T03:40:48.000Z,87.87
2022-08-17T03:41:48.000Z,87.98
2022-08-17T03:42:48.000Z,87.98
2022-08-17T03:43:48.000Z,87.77
2022-08-17T03:44:48.000Z,87.77
2022-08-17T03:45:48.000Z,87.77
2022-08-17T03:46:48.000Z,87.67
2022-08-17T03:47:48.000Z,87.47
2022-08-17T03:48:48.000Z,87.27
2022-08-17T03:49:48.000Z,87.37
2022-08-17T03:50:48.000Z,87.47
2022-08-17T03:51:48.000Z,87.57
2022-08-17T03:52:48.000Z,87.57
2022-08-17T03:53:48.000Z,87.67
2022-08-17T03:54:48.000Z,87.67
2022-08-17T03:55:48.000Z,87.77
2022-08-17T03:56:48.000Z,87.82
2022-08-17T03:57:48.000Z,87.57
2022-08-17T03:58:48.000Z,87.17
2022-08-17T03:59:48.000Z,86.91
2022-08-17T04:00:48.000Z,86.61
2022-08-17T04:01:48.000Z,86.51
2022-08-17T04:02:48.000Z,87.21
2022-08-17T04:03:48.000Z,87.71
2022-08-17T04:04:48.000Z,87.92
2022-08-17T04:05:48.000Z,88.22
2022-08-17T04:06:48.000Z,88.72
2022-08-17T04:07:48.000Z,88.48
2022-08-17T04:08:48.000Z,88.58
2022-08-17T04:09:48.000Z,88.58
2022-08-17T04:10:48.000Z,88.28
2022-08-17T04:11:48.000Z,88.28
2022-08-17T04:12:48.000Z,88.07
2022-08-17T04:13:48.000Z,88.28
2022-08-17T04:14:48.000Z,87.98
2022-08-17T04:15:48.000Z,87.98
2022-08-17T04:16:48.000Z,87.98
2022-08-17T04:17:48.000Z,87.98
2022-08-17T04:18:48.000Z,88.38
2022-08-17T04:19:48.000Z,88.48
2022-08-17T04:20:48.000Z,88.68
2022-08-17T04:21:48.000Z,88.48
2022-08-17T04:22:48.000Z,88.28
2022-08-17T04:23:48.000Z,88.48
2022-08-17T04:24:48.000Z,88.58
2022-08-17T04:25:48.000Z,88.78
2022-08-17T04:26:48.000Z,88.68
2022-08-17T04:27:48.000Z,88.54
2022-08-17T04:28:48.000Z,88.34
2022-08-17T04:29:48.000Z,88.54
2022-08-17T04:30:48.000Z,88.64
2022-08-17T04:31:47.000Z,88.43
2022-08-17T04:32:47.000Z,88.23
2022-08-17T04:33:47.000Z,88.13
2022-08-17T04:34:47.000Z,87.89
2022-08-17T04:35:47.000Z,88.29
2022-08-17T04:36:47.000Z,88.49
2022-08-17T04:37:47.000Z,88.19
2022-08-17T04:45:04.000Z,87.45
2022-08-17T04:45:04.000Z,87.24
2022-08-17T04:46:04.000Z,87.15
2022-08-17T04:47:04.000Z,87.35
2022-08-17T04:48:04.000Z,87.01
2022-08-17T04:55:21.000Z,86.40
2022-08-17T04:55:21.000Z,86.40
2022-08-17T04:56:21.000Z,86.20
2022-08-17T04:57:21.000Z,86.16
2022-08-17T04:58:21.000Z,85.96
2022-08-17T04:59:21.000Z,86.06
2022-08-17T05:00:21.000Z,86.16
2022-08-17T05:01:21.000Z,86.16
2022-08-17T05:02:21.000Z,86.06
2022-08-17T05:03:21.000Z,86.06
2022-08-17T05:04:21.000Z,86.16
2022-08-17T05:05:21.000Z,86.06
2022-08-17T05:06:21.000Z,85.96
2022-08-17T05:07:21.000Z,85.96
2022-08-17T05:08:21.000Z,85.66
2022-08-17T05:09:21.000Z,85.66
2022-08-17T05:10:21.000Z,85.56
2022-08-17T05:11:21.000Z,85.41
2022-08-17T05:12:21.000Z,85.22
2022-08-17T05:13:21.000Z,85.22
2022-08-17T05:14:21.000Z,85.02
2022-08-17T05:15:21.000Z,84.61
2022-08-17T05:16:21.000Z,84.11
2022-08-17T05:17:21.000Z,84.01
2022-08-17T05:18:21.000Z,83.81
2022-08-17T05:19:21.000Z,83.71
2022-08-17T05:19:21.000Z,83.71
2022-08-17T05:20:21.000Z,83.61
2022-08-17T05:20:21.000Z,83.61
2022-08-17T05:21:21.000Z,83.91
2022-08-17T05:21:21.000Z,83.91
2022-08-17T05:22:21.000Z,83.61
2022-08-17T05:22:21.000Z,83.61
2022-08-17T05:23:21.000Z,83.21
2022-08-17T05:23:21.000Z,83.21
2022-08-17T05:24:21.000Z,83.31
2022-08-17T05:25:21.000Z,82.90
2022-08-17T05:26:21.000Z,82.70
2022-08-17T05:27:21.000Z,82.51
2022-08-17T05:28:21.000Z,82.20
2022-08-17T05:29:21.000Z,81.80
2022-08-17T05:30:21.000Z,81.70
2022-08-17T05:31:21.000Z,81.56
2022-08-17T05:32:21.000Z,81.26
2022-08-17T05:33:21.000Z,81.26
2022-08-17T05:35:38.000Z,81.16
2022-08-17T05:35:38.000Z,81.06
2022-08-17T05:36:38.000Z,80.66
2022-08-17T05:37:38.000Z,80.56
2022-08-17T05:38:38.000Z,80.46
2022-08-17T05:39:38.000Z,80.36
2022-08-17T05:40:38.000Z,80.42
2022-08-17T05:41:38.000Z,80.42
2022-08-17T05:42:38.000Z,80.32
2022-08-17T05:43:38.000Z,80.32
2022-08-17T05:44:38.000Z,80.02
2022-08-17T05:45:38.000Z,79.72
2022-08-17T05:46:38.000Z,79.58
2022-08-17T05:47:38.000Z,79.38
2022-08-17T05:48:38.000Z,78.98
2022-08-17T05:49:38.000Z,78.68
2022-08-17T05:50:38.000Z,78.68
2022-08-17T05:51:38.000Z,77.87
2022-08-17T05:52:38.000Z,78.08
2022-08-17T05:53:37.000Z,78.04
2022-08-17T05:54:37.000Z,77.84
2022-08-17T05:55:37.000Z,77.44
2022-08-17T05:56:37.000Z,77.24
2022-08-17T05:57:37.000Z,77.04
2022-08-17T05:58:37.000Z,76.84
2022-08-17T05:59:37.000Z,76.43
2022-08-17T06:00:37.000Z,76.50
2022-08-17T06:01:37.000Z,76.40
2022-08-17T06:02:37.000Z,76.20
2022-08-17T06:03:37.000Z,75.70
2022-08-17T06:04:37.000Z,76.00
2022-08-17T06:05:37.000Z,75.80
2022-08-17T06:06:37.000Z,75.70
2022-08-17T06:07:37.000Z,76.60
2022-08-17T06:08:37.000Z,76.10
2022-08-17T06:09:37.000Z,75.40
2022-08-17T06:10:37.000Z,75.40
2022-08-17T06:11:37.000Z,75.30
2022-08-17T06:12:37.000Z,75.20
2022-08-17T06:13:37.000Z,75.16
2022-08-17T06:14:37.000Z,74.56
2022-08-17T06:15:37.000Z,75.06
2022-08-17T06:16:37.000Z,74.96
2022-08-17T06:17:37.000Z,74.37
2022-08-17T06:18:37.000Z,74.26
2022-08-17T06:19:37.000Z,74.37
2022-08-17T06:20:37.000Z,74.56
2022-08-17T06:21:37.000Z,74.66
2022-08-17T06:22:37.000Z,74.26
2022-08-17T06:23:37.000Z,74.26
2022-08-17T06:24:37.000Z,74.37
2022-08-17T06:25:37.000Z,73.66
2022-08-17T06:26:37.000Z,73.66
2022-08-17T06:27:37.000Z,73.26
2022-08-17T06:28:37.000Z,73.36
2022-08-17T06:29:37.000Z,73.93
2022-08-17T06:30:37.000Z,73.53
2022-08-17T06:31:37.000Z,73.53
2022-08-17T06:32:37.000Z,72.53
2022-08-17T06:33:37.000Z,71.23
2022-08-17T06:34:37.000Z,71.12
2022-08-17T06:35:37.000Z,71.42
2022-08-17T06:36:37.000Z,70.73
2022-08-17T06:37:37.000Z,70.92
2022-08-17T06:38:37.000Z,71.19
2022-08-17T06:39:37.000Z,71.49
2022-08-17T06:39:37.000Z,71.49
2022-08-17T06:39:37.000Z,71.49
2022-08-17T06:40:37.000Z,70.69
2022-08-17T06:40:37.000Z,70.69
2022-08-17T06:40:37.000Z,70.69
2022-08-17T06:41:37.000Z,69.99
2022-08-17T06:41:37.000Z,69.99
2022-08-17T06:41:37.000Z,69.99
2022-08-17T06:42:37.000Z,70.39
2022-08-17T06:42:37.000Z,70.39
2022-08-17T06:42:37.000Z,70.39
2022-08-17T06:43:37.000Z,70.29
2022-08-17T06:43:37.000Z,70.29
2022-08-17T06:43:37.000Z,70.29
2022-08-17T06:44:37.000Z,70.69
2022-08-17T06:44:37.000Z,70.69
2022-08-17T06:45:37.000Z,70.59
2022-08-17T06:45:37.000Z,70.59
2022-08-17T06:46:37.000Z,70.79
2022-08-17T06:46:37.000Z,70.79
2022-08-17T06:47:37.000Z,70.16
2022-08-17T06:47:37.000Z,70.16
2022-08-17T06:48:37.000Z,69.76
2022-08-17T06:48:37.000Z,69.76
2022-08-17T06:49:37.000Z,69.36
2022-08-17T06:50:37.000Z,69.16
2022-08-17T06:51:37.000Z,68.66
2022-08-17T06:52:37.000Z,68.82
2022-08-17T06:53:37.000Z,68.63
2022-08-17T06:54:37.000Z,68.13
2022-08-17T06:54:37.000Z,68.13
2022-08-17T06:55:37.000Z,68.33
2022-08-17T06:55:37.000Z,68.33
2022-08-17T06:56:37.000Z,67.93
2022-08-17T06:56:37.000Z,67.93
2022-08-17T06:57:37.000Z,67.19
2022-08-17T06:57:37.000Z,67.19
2022-08-17T06:58:37.000Z,67.10
2022-08-17T06:58:37.000Z,67.10
2022-08-17T06:59:37.000Z,67.40
2022-08-17T07:00:37.000Z,67.30
2022-08-17T07:01:37.000Z,67.00
2022-08-17T07:02:37.000Z,67.40
2022-08-17T07:03:37.000Z,66.60
2022-08-17T07:04:37.000Z,66.50
2022-08-17T07:05:37.000Z,66.50
2022-08-17T07:06:36.000Z,66.27
2022-08-17T07:07:36.000Z,66.17
2022-08-17T07:08:36.000Z,66.06
2022-08-17T07:09:36.000Z,66.56
2022-08-17T07:10:36.000Z,65.34
2022-08-17T07:11:36.000Z,65.14
2022-08-17T07:12:36.000Z,65.14
2022-08-17T07:13:36.000Z,65.04
2022-08-17T07:14:36.000Z,65.34
2022-08-17T07:15:36.000Z,65.61
2022-08-17T07:16:36.000Z,65.31
2022-08-17T07:17:36.000Z,64.90
2022-08-17T07:18:36.000Z,64.78
2022-08-17T07:19:36.000Z,64.37
2022-08-17T07:20:36.000Z,64.07
2022-08-17T07:21:36.000Z,63.95
2022-08-17T07:22:36.000Z,64.04
2022-08-17T07:23:36.000Z,64.15
2022-08-17T07:24:36.000Z,64.34
2022-08-17T07:25:36.000Z,64.12
2022-08-17T07:26:36.000Z,62.92
2022-08-17T07:27:36.000Z,63.39
2022-08-17T07:28:36.000Z,62.89
2022-08-17T07:29:36.000Z,61.40
2022-08-17T07:30:36.000Z,61.87
2022-08-17T07:31:36.000Z,61.57
2022-08-17T07:32:36.000Z,60.97
2022-08-17T07:33:36.000Z,61.27
2022-08-17T07:34:36.000Z,61.57
2022-08-17T07:34:36.000Z,61.57
2022-08-17T07:35:36.000Z,61.24
2022-08-17T07:35:36.000Z,61.24
2022-08-17T07:36:36.000Z,60.74
2022-08-17T07:36:36.000Z,60.74
2022-08-17T07:37:36.000Z,60.35
2022-08-17T07:37:36.000Z,60.35
2022-08-17T07:38:36.000Z,60.02
2022-08-17T07:38:36.000Z,60.02
2022-08-17T07:39:36.000Z,60.22
2022-08-17T07:40:36.000Z,60.02
2022-08-17T07:41:36.000Z,60.12
2022-08-17T07:42:36.000Z,59.89
2022-08-17T07:43:36.000Z,59.59
2022-08-17T07:44:36.000Z,59.00
2022-08-17T07:45:36.000Z,58.67
2022-08-17T07:46:36.000Z,58.37
2022-08-17T07:47:36.000Z,58.54
2022-08-17T07:48:36.000Z,58.74
2022-08-17T07:49:36.000Z,58.04
2022-08-17T07:50:36.000Z,57.82
2022-08-17T07:51:36.000Z,56.73
2022-08-17T07:52:36.000Z,55.91
2022-08-17T07:53:36.000Z,55.68
2022-08-17T07:54:36.000Z,54.37
2022-08-17T07:55:36.000Z,54.24
2022-08-17T07:56:36.000Z,53.42
2022-08-17T07:57:36.000Z,52.69
2022-08-17T07:58:36.000Z,51.57
2022-08-17T07:59:36.000Z,51.28
2022-08-17T08:00:36.000Z,50.24
2022-08-17T08:01:36.000Z,49.33
2022-08-17T08:02:36.000Z,49.08
2022-08-17T08:03:36.000Z,48.59
2022-08-17T08:04:36.000Z,47.88
2022-08-17T08:05:36.000Z,48.27
2022-08-17T08:06:36.000Z,49.06
2022-08-17T08:07:36.000Z,48.57
2022-08-17T08:08:36.000Z,47.16
2022-08-17T08:09:36.000Z,47.04
2022-08-17T08:10:36.000Z,46.70
2022-08-17T08:11:36.000Z,46.97
2022-08-17T08:12:36.000Z,44.77
2022-08-17T08:13:36.000Z,44.06
2022-08-17T08:14:36.000Z,44.23
2022-08-17T08:15:36.000Z,43.74
2022-08-17T08:16:35.000Z,43.05
2022-08-17T08:17:35.000Z,43.57
2022-08-17T08:18:35.000Z,43.94
2022-08-17T08:19:35.000Z,43.74
2022-08-17T08:20:35.000Z,42.57
2022-08-17T08:21:35.000Z,43.04
2022-08-17T08:22:35.000Z,42.52
2022-08-17T08:23:35.000Z,42.31
2022-08-17T08:24:35.000Z,42.38
2022-08-17T08:25:35.000Z,42.29
2022-08-17T08:26:35.000Z,42.36
2022-08-17T08:27:35.000Z,41.76
2022-08-17T08:28:35.000Z,40.47
2022-08-17T08:29:35.000Z,39.98
2022-08-17T08:29:35.000Z,39.98
2022-08-17T08:30:35.000Z,39.59
2022-08-17T08:30:35.000Z,39.59
2022-08-17T08:31:35.000Z,39.70
2022-08-17T08:31:35.000Z,39.70
2022-08-17T08:32:35.000Z,39.39
2022-08-17T08:32:35.000Z,39.39
2022-08-17T08:33:35.000Z,39.59
2022-08-17T08:33:35.000Z,39.59
2022-08-17T08:34:35.000Z,40.37
2022-08-17T08:35:35.000Z,39.69
2022-08-17T08:36:35.000Z,38.98
2022-08-17T08:37:35.000Z,39.67
2022-08-17T08:38:35.000Z,38.89
2022-08-17T08:39:35.000Z,38.89
2022-08-17T08:39:35.000Z,38.89
2022-08-17T08:39:35.000Z,38.89
2022-08-17T08:40:35.000Z,39.18
2022-08-17T08:40:35.000Z,39.18
2022-08-17T08:40:35.000Z,39.18
2022-08-17T08:41:35.000Z,37.91
2022-08-17T08:41:35.000Z,37.91
2022-08-17T08:41:35.000Z,37.91
2022-08-17T08:42:35.000Z,38.20
2022-08-17T08:42:35.000Z,38.20
2022-08-17T08:42:35.000Z,38.20
2022-08-17T08:43:35.000Z,38.01
2022-08-17T08:43:35.000Z,38.01
2022-08-17T08:43:35.000Z,38.01
2022-08-17T08:44:35.000Z,38.22
2022-08-17T08:44:35.000Z,38.22
2022-08-17T08:45:35.000Z,38.42
2022-08-17T08:45:35.000Z,38.42
2022-08-17T08:46:35.000Z,38.51
2022-08-17T08:46:35.000Z,38.51
2022-08-17T08:47:35.000Z,38.59
2022-08-17T08:47:35.000Z,38.59
2022-08-17T08:48:35.000Z,38.49
2022-08-17T08:48:35.000Z,38.49
2022-08-17T08:49:35.000Z,39.08
2022-08-17T08:50:35.000Z,38.20
2022-08-17T08:51:35.000Z,38.18
2022-08-17T08:52:35.000Z,37.11
2022-08-17T08:53:35.000Z,37.60
2022-08-17T08:54:35.000Z,37.32
2022-08-17T08:55:35.000Z,38.01
2022-08-17T08:56:35.000Z,37.52
2022-08-17T08:57:35.000Z,37.89
2022-08-17T08:58:35.000Z,37.29
2022-08-17T08:59:35.000Z,37.19
2022-08-17T08:59:35.000Z,37.19
2022-08-17T09:00:35.000Z,37.46
2022-08-17T09:00:35.000Z,37.46
2022-08-17T09:01:35.000Z,37.07
2022-08-17T09:01:35.000Z,37.07
2022-08-17T09:02:35.000Z,37.55
2022-08-17T09:02:35.000Z,37.55
2022-08-17T09:03:35.000Z,36.27
2022-08-17T09:03:35.000Z,36.27
2022-08-17T09:04:35.000Z,36.86
2022-08-17T09:05:35.000Z,36.78
2022-08-17T09:06:35.000Z,37.63
2022-08-17T09:07:35.000Z,38.12
2022-08-17T09:08:35.000Z,36.06
2022-08-17T09:09:35.000Z,35.85
2022-08-17T09:10:35.000Z,35.57
2022-08-17T09:11:35.000Z,35.57
2022-08-17T09:12:35.000Z,35.08
2022-08-17T09:13:35.000Z,35.49
2022-08-17T09:14:35.000Z,36.08
2022-08-17T09:15:35.000Z,35.69
2022-08-17T09:16:35.000Z,36.68
2022-08-17T09:17:35.000Z,36.39
2022-08-17T09:18:35.000Z,36.96
2022-08-17T09:19:35.000Z,36.16
2022-08-17T09:20:35.000Z,35.36
2022-08-17T09:21:35.000Z,34.97
2022-08-17T09:22:35.000Z,35.25
2022-08-17T09:23:35.000Z,35.34
2022-08-17T09:24:35.000Z,34.84
2022-08-17T09:25:35.000Z,34.16
2022-08-17T09:26:35.000Z,34.55
2022-08-17T09:27:35.000Z,34.45
2022-08-17T09:28:35.000Z,33.75
2022-08-17T09:29:35.000Z,33.73
2022-08-17T09:30:35.000Z,33.85
2022-08-17T09:31:35.000Z,33.75
2022-08-17T09:32:34.000Z,35.13
2022-08-17T09:33:34.000Z,34.47
2022-08-17T09:34:34.000Z,35.44
2022-08-17T09:35:34.000Z,34.88
2022-08-17T09:36:34.000Z,34.88
2022-08-17T09:37:34.000Z,34.88
2022-08-17T09:38:34.000Z,34.79
2022-08-17T09:39:34.000Z,35.67
2022-08-17T09:40:34.000Z,35.67
2022-08-17T09:41:34.000Z,34.89
2022-08-17T09:42:34.000Z,34.79
2022-08-17T09:43:34.000Z,35.28
2022-08-17T09:44:34.000Z,34.68
2022-08-17T09:45:34.000Z,35.06
2022-08-17T09:46:34.000Z,34.88
2022-08-17T09:47:34.000Z,35.16
2022-08-17T09:48:34.000Z,34.78
2022-08-17T09:49:34.000Z,35.06
2022-08-17T09:50:34.000Z,35.06
2022-08-17T09:51:34.000Z,35.77
2022-08-17T09:52:34.000Z,35.88
2022-08-17T09:53:34.000Z,36.96
2022-08-17T09:54:34.000Z,36.84
2022-08-17T09:55:34.000Z,36.25
2022-08-17T09:56:34.000Z,35.88
2022-08-17T09:57:34.000Z,36.18
2022-08-17T09:58:34.000Z,35.78
2022-08-17T09:59:34.000Z,35.28
2022-08-17T10:00:34.000Z,34.48
2022-08-17T10:01:34.000Z,34.39
2022-08-17T10:02:34.000Z,34.00
2022-08-17T10:03:34.000Z,34.29
2022-08-17T10:04:34.000Z,33.90
2022-08-17T10:05:34.000Z,34.11
2022-08-17T10:06:34.000Z,34.31
2022-08-17T10:07:34.000Z,34.71
2022-08-17T10:08:34.000Z,35.51
2022-08-17T10:09:34.000Z,34.73
2022-08-17T10:10:34.000Z,34.92
2022-08-17T10:11:34.000Z,35.24
2022-08-17T10:12:34.000Z,35.24
2022-08-17T10:13:34.000Z,35.24
2022-08-17T10:14:34.000Z,35.43
2022-08-17T10:15:34.000Z,35.33
2022-08-17T10:16:34.000Z,34.94
2022-08-17T10:17:34.000Z,34.83
2022-08-17T10:18:34.000Z,35.61
2022-08-17T10:19:34.000Z,36.90
2022-08-17T10:19:34.000Z,36.90
2022-08-17T10:19:34.000Z,36.90
2022-08-17T10:20:34.000Z,36.23
2022-08-17T10:20:34.000Z,36.23
2022-08-17T10:20:34.000Z,36.23
2022-08-17T10:21:34.000Z,36.82
2022-08-17T10:21:34.000Z,36.82
2022-08-17T10:21:34.000Z,36.82
2022-08-17T10:22:34.000Z,36.13
2022-08-17T10:22:34.000Z,36.13
2022-08-17T10:22:34.000Z,36.13
2022-08-17T10:23:34.000Z,35.82
2022-08-17T10:23:34.000Z,35.82
2022-08-17T10:23:34.000Z,35.82
2022-08-17T10:24:34.000Z,35.61
2022-08-17T10:24:34.000Z,35.61
2022-08-17T10:25:34.000Z,35.20
2022-08-17T10:25:34.000Z,35.20
2022-08-17T10:26:34.000Z,35.00
2022-08-17T10:26:34.000Z,35.00
2022-08-17T10:27:34.000Z,35.20
2022-08-17T10:27:34.000Z,35.20
2022-08-17T10:28:34.000Z,34.71
2022-08-17T10:28:34.000Z,34.71
2022-08-17T10:29:34.000Z,34.11
2022-08-17T10:30:34.000Z,34.69
2022-08-17T10:31:34.000Z,34.42
2022-08-17T10:32:34.000Z,34.61
2022-08-17T10:33:34.000Z,34.22
2022-08-17T10:34:34.000Z,34.91
2022-08-17T10:34:34.000Z,34.91
2022-08-17T10:35:34.000Z,34.52
2022-08-17T10:35:34.000Z,34.52
2022-08-17T10:36:34.000Z,33.93
2022-08-17T10:36:34.000Z,33.93
2022-08-17T10:37:34.000Z,34.32
2022-08-17T10:37:34.000Z,34.32
2022-08-17T10:38:34.000Z,33.34
2022-08-17T10:38:34.000Z,33.34
2022-08-17T10:39:34.000Z,33.34
2022-08-17T10:40:34.000Z,33.54
2022-08-17T10:41:34.000Z,33.44
2022-08-17T10:42:34.000Z,34.53
2022-08-17T10:43:34.000Z,34.34
2022-08-17T10:44:34.000Z,34.03
2022-08-17T10:45:33.000Z,34.91
2022-08-17T10:46:33.000Z,33.34
2022-08-17T10:47:33.000Z,34.03
2022-08-17T10:48:33.000Z,33.73
2022-08-17T10:49:33.000Z,33.83
2022-08-17T10:50:33.000Z,33.83
2022-08-17T10:51:33.000Z,34.81
2022-08-17T10:52:33.000Z,34.91
2022-08-17T10:53:33.000Z,35.78
2022-08-17T10:54:33.000Z,33.92
2022-08-17T10:55:33.000Z,33.44
2022-08-17T10:56:33.000Z,34.22
2022-08-17T10:57:33.000Z,33.73
2022-08-17T10:58:33.000Z,34.32
2022-08-17T10:59:33.000Z,34.31
2022-08-17T11:00:33.000Z,33.70
2022-08-17T11:01:33.000Z,34.48
2022-08-17T11:02:33.000Z,33.70
2022-08-17T11:03:33.000Z,33.51
2022-08-17T11:04:33.000Z,33.41
2022-08-17T11:05:33.000Z,33.02
2022-08-17T11:06:33.000Z,33.70
2022-08-17T11:07:33.000Z,33.70
2022-08-17T11:08:33.000Z,32.82
2022-08-17T11:09:33.000Z,32.71
2022-08-17T11:10:33.000Z,33.78
2022-08-17T11:11:33.000Z,33.96
2022-08-17T11:12:33.000Z,34.16
2022-08-17T11:13:33.000Z,32.99
2022-08-17T11:14:33.000Z,32.60
2022-08-17T11:15:33.000Z,33.01
2022-08-17T11:16:33.000Z,33.80
2022-08-17T11:17:33.000Z,34.21
2022-08-17T11:18:33.000Z,33.82
2022-08-17T11:19:33.000Z,34.99
2022-08-17T11:20:33.000Z,33.61
2022-08-17T11:21:33.000Z,33.72
2022-08-17T11:22:33.000Z,33.51
2022-08-17T11:23:33.000Z,34.00
2022-08-17T11:24:33.000Z,33.51
2022-08-17T11:25:33.000Z,33.01
2022-08-17T11:26:33.000Z,32.81
2022-08-17T11:27:33.000Z,31.82
2022-08-17T11:28:33.000Z,32.31